createdAt,value
2018-11-07T00:04:07.248Z,23.3
2018-11-07T00:14:06.508Z,23.3
2018-11-07T00:24:05.674Z,23.3
2018-11-07T00:34:04.882Z,23.3
2018-11-07T00:44:04.100Z,23.3
2018-11-07T00:54:03.313Z,23.3
2018-11-07T01:04:02.524Z,23.3
2018-11-07T01:14:01.735Z,23.3
2018-11-07T01:24:00.947Z,23.3
2018-11-07T01:34:00.167Z,23.3
2018-11-07T01:43:59.377Z,23.3
2018-11-07T01:53:58.586Z,23.3
2018-11-07T02:03:57.803Z,23.3
2018-11-07T02:13:57.018Z,23.2
2018-11-07T02:23:56.224Z,23.2
2018-11-07T02:33:55.436Z,23.2
2018-11-07T02:43:54.648Z,23.1
2018-11-07T02:53:53.865Z,23.1
2018-11-07T03:03:53.128Z,23.1
2018-11-07T03:13:52.288Z,23.1
2018-11-07T03:23:51.503Z,23.1
2018-11-07T03:33:50.721Z,23.1
2018-11-07T03:43:49.928Z,23.1
2018-11-07T03:53:49.143Z,23
2018-11-07T04:03:48.353Z,22.9
2018-11-07T04:13:47.565Z,22.9
2018-11-07T04:23:46.777Z,22.9
2018-11-07T04:33:45.986Z,22.9
2018-11-07T04:43:45.205Z,22.9
2018-11-07T04:53:44.418Z,22.8
2018-11-07T05:03:43.628Z,22.8
2018-11-07T05:13:42.842Z,22.8
2018-11-07T05:23:42.063Z,22.8
2018-11-07T05:33:41.272Z,22.8
2018-11-07T05:43:40.489Z,22.8
2018-11-07T05:53:39.708Z,22.7
2018-11-07T06:03:38.924Z,22.8
2018-11-07T06:13:38.131Z,22.8
2018-11-07T06:23:37.350Z,23.4
2018-11-07T06:33:36.559Z,24.1
2018-11-07T06:43:35.778Z,24.7
2018-11-07T06:53:34.998Z,25.2
2018-11-07T07:03:34.201Z,25.3
2018-11-07T07:13:33.417Z,25.2
2018-11-07T07:23:32.635Z,25.1
2018-11-07T07:33:31.879Z,24.9
2018-11-07T07:43:31.065Z,24.8
2018-11-07T07:53:30.281Z,24.8
2018-11-07T08:03:29.496Z,24.8
2018-11-07T08:13:28.743Z,24.8
2018-11-07T08:23:27.925Z,24.7
2018-11-07T08:33:27.143Z,24.7
2018-11-07T08:43:26.361Z,24.6
2018-11-07T08:53:25.569Z,24.4
2018-11-07T09:03:24.784Z,24.3
2018-11-07T09:13:24.002Z,24.1
2018-11-07T09:23:23.214Z,24.1
2018-11-07T09:33:22.427Z,24
2018-11-07T09:43:21.640Z,24
2018-11-07T09:53:20.857Z,24
2018-11-07T10:03:20.070Z,24.1
2018-11-07T10:13:19.289Z,24.1
2018-11-07T10:23:18.497Z,24.1
2018-11-07T10:33:17.712Z,24.1
2018-11-07T10:43:16.926Z,24.1
2018-11-07T10:53:16.145Z,24.1
2018-11-07T11:03:15.358Z,24.1
2018-11-07T11:13:14.575Z,24.1
2018-11-07T11:23:13.791Z,24
2018-11-07T11:33:13.001Z,24
2018-11-07T11:43:12.224Z,23.9
2018-11-07T11:53:11.436Z,23.9
2018-11-07T12:03:10.657Z,23.9
2018-11-07T12:13:09.885Z,23.8
2018-11-07T12:23:09.081Z,23.8
2018-11-07T12:33:08.294Z,23.8
2018-11-07T12:43:07.511Z,23.7
2018-11-07T12:53:06.722Z,23.7
2018-11-07T13:03:05.988Z,23.6
2018-11-07T13:13:05.149Z,23.6
2018-11-07T13:23:04.364Z,23.6
2018-11-07T13:33:03.572Z,23.5
2018-11-07T13:43:02.784Z,23.4
2018-11-07T13:53:02.083Z,23.4
2018-11-07T14:03:01.221Z,23.4
2018-11-07T14:13:00.431Z,23.4
2018-11-07T14:22:59.648Z,23.3
2018-11-07T14:32:58.857Z,23.3
2018-11-07T14:42:58.070Z,23.3
2018-11-07T14:52:57.282Z,23.3
2018-11-07T15:02:56.489Z,23.2
2018-11-07T15:12:55.711Z,23.2
2018-11-07T15:22:54.919Z,23.1
2018-11-07T15:32:54.134Z,23.1
2018-11-07T15:42:53.342Z,23.1
2018-11-07T15:52:52.614Z,23.1
2018-11-07T16:02:51.773Z,23
2018-11-07T16:12:50.981Z,23
2018-11-07T16:22:50.290Z,22.9
2018-11-07T16:32:49.412Z,22.9
2018-11-07T16:42:48.624Z,22.9
2018-11-07T16:52:47.926Z,22.9
2018-11-07T17:02:47.052Z,22.8
2018-11-07T17:12:46.257Z,22.8
2018-11-07T17:22:45.477Z,22.8
2018-11-07T17:32:44.686Z,22.8
2018-11-07T17:42:43.900Z,22.8
2018-11-07T17:52:43.120Z,22.8
2018-11-07T18:02:42.337Z,22.7
2018-11-07T18:12:41.552Z,22.8
2018-11-07T18:22:40.766Z,22.7
2018-11-07T18:32:39.985Z,22.8
2018-11-07T18:42:39.192Z,22.8
2018-11-07T18:52:38.408Z,22.8
2018-11-07T19:02:37.622Z,22.8
2018-11-07T19:12:36.847Z,22.8
2018-11-07T19:22:36.059Z,22.8
2018-11-07T19:32:35.267Z,22.8
2018-11-07T19:42:34.488Z,22.8
2018-11-07T19:52:33.701Z,22.9
2018-11-07T20:02:32.916Z,22.9
2018-11-07T20:12:32.144Z,22.9
2018-11-07T20:22:31.385Z,22.9
2018-11-07T20:32:30.562Z,22.8
2018-11-07T20:42:29.771Z,22.8
2018-11-07T20:52:28.990Z,22.8
2018-11-07T21:02:28.202Z,22.9
2018-11-07T21:12:27.416Z,23
2018-11-07T21:22:26.636Z,23
2018-11-07T21:32:25.852Z,23.1
2018-11-07T21:42:25.063Z,23.1
2018-11-07T21:52:24.280Z,23.1
2018-11-07T22:02:23.496Z,23.1
2018-11-07T22:12:22.712Z,23.1
2018-11-07T22:22:21.919Z,23.1
2018-11-07T22:32:21.142Z,23.1
2018-11-07T22:42:20.348Z,23.1
2018-11-07T22:52:19.572Z,23.1
2018-11-07T23:02:18.779Z,23.1
2018-11-07T23:12:17.997Z,23.1
2018-11-07T23:22:17.203Z,23.1
2018-11-07T23:32:16.416Z,23.1
2018-11-07T23:42:15.635Z,23.1
